sensor_id;sensor_type;location;lat;lon;timestamp;P1;durP1;ratioP1;P2;durP2;ratioP2
68438;SDS011;55421;51.600;5.718;2023-09-19T00:00:56;7.50;;;1.90;;
68438;SDS011;55421;51.600;5.718;2023-09-19T00:03:38;9.70;;;2.10;;
68438;SDS011;55421;51.600;5.718;2023-09-19T00:06:05;8.80;;;2.20;;
68438;SDS011;55421;51.600;5.718;2023-09-19T00:08:34;8.40;;;1.80;;
68438;SDS011;55421;51.600;5.718;2023-09-19T00:11:00;8.40;;;1.90;;
68438;SDS011;55421;51.600;5.718;2023-09-19T00:13:28;12.90;;;2.30;;
68438;SDS011;55421;51.600;5.718;2023-09-19T00:15:55;14.50;;;2.20;;
68438;SDS011;55421;51.600;5.718;2023-09-19T00:18:21;8.90;;;2.50;;
68438;SDS011;55421;51.600;5.718;2023-09-19T00:20:49;8.50;;;1.90;;
68438;SDS011;55421;51.600;5.718;2023-09-19T00:23:17;10.80;;;2.40;;
68438;SDS011;55421;51.600;5.718;2023-09-19T00:25:45;9.70;;;2.40;;
68438;SDS011;55421;51.600;5.718;2023-09-19T00:28:11;8.10;;;1.60;;
68438;SDS011;55421;51.600;5.718;2023-09-19T00:30:38;7.50;;;1.90;;
68438;SDS011;55421;51.600;5.718;2023-09-19T00:33:04;13.00;;;2.50;;
68438;SDS011;55421;51.600;5.718;2023-09-19T00:35:33;10.00;;;2.50;;
68438;SDS011;55421;51.600;5.718;2023-09-19T00:38:03;7.90;;;2.20;;
68438;SDS011;55421;51.600;5.718;2023-09-19T00:40:30;11.00;;;2.80;;
68438;SDS011;55421;51.600;5.718;2023-09-19T00:42:57;9.50;;;2.20;;
68438;SDS011;55421;51.600;5.718;2023-09-19T00:45:27;9.40;;;2.60;;
68438;SDS011;55421;51.600;5.718;2023-09-19T00:47:54;10.40;;;1.90;;
68438;SDS011;55421;51.600;5.718;2023-09-19T00:50:23;8.40;;;2.30;;
68438;SDS011;55421;51.600;5.718;2023-09-19T00:52:54;10.70;;;1.90;;
68438;SDS011;55421;51.600;5.718;2023-09-19T00:55:25;9.80;;;1.90;;
68438;SDS011;55421;51.600;5.718;2023-09-19T00:57:55;11.40;;;2.30;;
68438;SDS011;55421;51.600;5.718;2023-09-19T01:00:23;11.30;;;2.30;;
68438;SDS011;55421;51.600;5.718;2023-09-19T01:02:50;8.60;;;2.00;;
68438;SDS011;55421;51.600;5.718;2023-09-19T01:05:16;8.00;;;2.30;;
68438;SDS011;55421;51.600;5.718;2023-09-19T01:07:44;11.70;;;2.20;;
68438;SDS011;55421;51.600;5.718;2023-09-19T01:10:14;9.30;;;2.40;;
68438;SDS011;55421;51.600;5.718;2023-09-19T01:13:08;9.40;;;1.70;;
68438;SDS011;55421;51.600;5.718;2023-09-19T01:16:03;8.10;;;2.00;;
68438;SDS011;55421;51.600;5.718;2023-09-19T01:18:43;10.20;;;2.40;;
68438;SDS011;55421;51.600;5.718;2023-09-19T01:21:29;9.50;;;2.30;;
68438;SDS011;55421;51.600;5.718;2023-09-19T01:24:16;9.00;;;2.20;;
68438;SDS011;55421;51.600;5.718;2023-09-19T01:27:17;7.20;;;1.90;;
68438;SDS011;55421;51.600;5.718;2023-09-19T01:30:21;10.60;;;1.90;;
68438;SDS011;55421;51.600;5.718;2023-09-19T01:32:53;12.90;;;2.00;;
68438;SDS011;55421;51.600;5.718;2023-09-19T01:35:21;9.00;;;2.30;;
68438;SDS011;55421;51.600;5.718;2023-09-19T01:37:47;5.20;;;2.00;;
68438;SDS011;55421;51.600;5.718;2023-09-19T01:40:17;11.60;;;2.40;;
68438;SDS011;55421;51.600;5.718;2023-09-19T01:42:58;5.90;;;2.00;;
68438;SDS011;55421;51.600;5.718;2023-09-19T01:48:59;14.60;;;2.40;;
68438;SDS011;55421;51.600;5.718;2023-09-19T01:51:37;9.00;;;2.10;;
68438;SDS011;55421;51.600;5.718;2023-09-19T01:54:16;10.10;;;2.00;;
68438;SDS011;55421;51.600;5.718;2023-09-19T01:56:59;8.60;;;1.60;;
68438;SDS011;55421;51.600;5.718;2023-09-19T01:59:37;9.50;;;2.40;;
68438;SDS011;55421;51.600;5.718;2023-09-19T02:02:10;10.40;;;2.00;;
68438;SDS011;55421;51.600;5.718;2023-09-19T02:04:38;8.00;;;1.80;;
68438;SDS011;55421;51.600;5.718;2023-09-19T02:07:05;6.60;;;1.80;;
68438;SDS011;55421;51.600;5.718;2023-09-19T02:09:34;10.20;;;2.10;;
68438;SDS011;55421;51.600;5.718;2023-09-19T02:12:05;12.60;;;2.40;;
68438;SDS011;55421;51.600;5.718;2023-09-19T02:14:32;7.50;;;2.20;;
68438;SDS011;55421;51.600;5.718;2023-09-19T02:16:59;9.20;;;2.20;;
68438;SDS011;55421;51.600;5.718;2023-09-19T02:19:26;10.70;;;2.20;;
68438;SDS011;55421;51.600;5.718;2023-09-19T02:21:54;16.40;;;2.80;;
68438;SDS011;55421;51.600;5.718;2023-09-19T02:24:20;8.60;;;2.50;;
68438;SDS011;55421;51.600;5.718;2023-09-19T02:26:47;11.60;;;2.10;;
68438;SDS011;55421;51.600;5.718;2023-09-19T02:29:13;8.60;;;1.90;;
68438;SDS011;55421;51.600;5.718;2023-09-19T02:31:40;7.40;;;1.60;;
68438;SDS011;55421;51.600;5.718;2023-09-19T02:34:06;9.40;;;2.00;;
68438;SDS011;55421;51.600;5.718;2023-09-19T02:36:36;7.80;;;2.00;;
68438;SDS011;55421;51.600;5.718;2023-09-19T02:39:03;4.80;;;1.50;;
68438;SDS011;55421;51.600;5.718;2023-09-19T02:41:31;8.80;;;2.00;;
68438;SDS011;55421;51.600;5.718;2023-09-19T02:43:59;9.00;;;2.40;;
68438;SDS011;55421;51.600;5.718;2023-09-19T02:46:25;9.00;;;2.00;;
68438;SDS011;55421;51.600;5.718;2023-09-19T02:48:52;6.50;;;1.80;;
68438;SDS011;55421;51.600;5.718;2023-09-19T02:51:18;9.70;;;1.80;;
68438;SDS011;55421;51.600;5.718;2023-09-19T02:53:45;7.30;;;2.00;;
68438;SDS011;55421;51.600;5.718;2023-09-19T02:56:13;14.20;;;2.10;;
68438;SDS011;55421;51.600;5.718;2023-09-19T02:58:41;8.70;;;1.70;;
68438;SDS011;55421;51.600;5.718;2023-09-19T03:01:12;11.80;;;2.10;;
68438;SDS011;55421;51.600;5.718;2023-09-19T03:03:38;8.40;;;1.50;;
68438;SDS011;55421;51.600;5.718;2023-09-19T03:06:06;4.60;;;1.60;;
68438;SDS011;55421;51.600;5.718;2023-09-19T03:08:36;8.80;;;1.70;;
68438;SDS011;55421;51.600;5.718;2023-09-19T03:11:06;10.90;;;2.00;;
68438;SDS011;55421;51.600;5.718;2023-09-19T03:13:34;8.40;;;1.90;;
68438;SDS011;55421;51.600;5.718;2023-09-19T03:16:02;7.90;;;1.50;;
68438;SDS011;55421;51.600;5.718;2023-09-19T03:18:34;7.20;;;2.40;;
68438;SDS011;55421;51.600;5.718;2023-09-19T03:21:00;9.60;;;2.10;;
68438;SDS011;55421;51.600;5.718;2023-09-19T03:23:28;10.60;;;2.10;;
68438;SDS011;55421;51.600;5.718;2023-09-19T03:25:55;8.80;;;2.00;;
68438;SDS011;55421;51.600;5.718;2023-09-19T03:28:22;8.30;;;2.20;;
68438;SDS011;55421;51.600;5.718;2023-09-19T03:31:02;8.00;;;2.00;;
68438;SDS011;55421;51.600;5.718;2023-09-19T03:33:30;8.60;;;1.70;;
68438;SDS011;55421;51.600;5.718;2023-09-19T03:36:01;3.50;;;1.70;;
68438;SDS011;55421;51.600;5.718;2023-09-19T03:40:58;7.50;;;1.90;;
68438;SDS011;55421;51.600;5.718;2023-09-19T03:43:25;9.40;;;1.90;;
68438;SDS011;55421;51.600;5.718;2023-09-19T03:45:53;6.60;;;1.60;;
68438;SDS011;55421;51.600;5.718;2023-09-19T03:48:20;6.80;;;1.80;;
68438;SDS011;55421;51.600;5.718;2023-09-19T03:50:48;8.80;;;1.60;;
68438;SDS011;55421;51.600;5.718;2023-09-19T03:53:14;6.20;;;1.90;;
68438;SDS011;55421;51.600;5.718;2023-09-19T03:55:41;7.00;;;2.10;;
68438;SDS011;55421;51.600;5.718;2023-09-19T03:58:07;6.20;;;2.00;;
68438;SDS011;55421;51.600;5.718;2023-09-19T04:00:34;8.20;;;2.20;;
68438;SDS011;55421;51.600;5.718;2023-09-19T04:03:00;9.70;;;2.10;;
68438;SDS011;55421;51.600;5.718;2023-09-19T04:05:32;5.00;;;1.60;;
68438;SDS011;55421;51.600;5.718;2023-09-19T04:07:59;10.00;;;2.10;;
68438;SDS011;55421;51.600;5.718;2023-09-19T04:10:26;7.00;;;1.70;;
68438;SDS011;55421;51.600;5.718;2023-09-19T04:12:53;10.00;;;2.00;;
68438;SDS011;55421;51.600;5.718;2023-09-19T04:15:21;5.10;;;1.70;;
68438;SDS011;55421;51.600;5.718;2023-09-19T04:17:50;7.10;;;1.70;;
68438;SDS011;55421;51.600;5.718;2023-09-19T04:20:20;9.70;;;2.00;;
68438;SDS011;55421;51.600;5.718;2023-09-19T04:22:49;9.80;;;2.00;;
68438;SDS011;55421;51.600;5.718;2023-09-19T04:25:16;6.60;;;1.70;;
68438;SDS011;55421;51.600;5.718;2023-09-19T04:27:43;6.10;;;1.90;;
68438;SDS011;55421;51.600;5.718;2023-09-19T04:30:10;15.00;;;2.50;;
68438;SDS011;55421;51.600;5.718;2023-09-19T04:32:38;8.40;;;2.70;;
68438;SDS011;55421;51.600;5.718;2023-09-19T04:35:08;9.40;;;1.90;;
68438;SDS011;55421;51.600;5.718;2023-09-19T04:37:37;8.70;;;1.90;;
68438;SDS011;55421;51.600;5.718;2023-09-19T04:40:09;8.10;;;1.70;;
68438;SDS011;55421;51.600;5.718;2023-09-19T04:42:41;10.70;;;1.90;;
68438;SDS011;55421;51.600;5.718;2023-09-19T04:45:08;6.00;;;2.40;;
68438;SDS011;55421;51.600;5.718;2023-09-19T04:47:37;11.60;;;2.00;;
68438;SDS011;55421;51.600;5.718;2023-09-19T04:50:09;5.90;;;1.60;;
68438;SDS011;55421;51.600;5.718;2023-09-19T04:52:40;8.40;;;1.80;;
68438;SDS011;55421;51.600;5.718;2023-09-19T04:57:47;8.30;;;2.20;;
68438;SDS011;55421;51.600;5.718;2023-09-19T05:00:17;7.50;;;1.90;;
68438;SDS011;55421;51.600;5.718;2023-09-19T05:02:51;9.60;;;2.00;;
68438;SDS011;55421;51.600;5.718;2023-09-19T05:05:19;6.70;;;1.90;;
68438;SDS011;55421;51.600;5.718;2023-09-19T05:07:46;7.80;;;1.90;;
68438;SDS011;55421;51.600;5.718;2023-09-19T05:10:13;12.10;;;2.00;;
68438;SDS011;55421;51.600;5.718;2023-09-19T05:12:40;6.90;;;1.80;;
68438;SDS011;55421;51.600;5.718;2023-09-19T05:15:07;10.80;;;2.30;;
68438;SDS011;55421;51.600;5.718;2023-09-19T05:17:35;10.40;;;2.20;;
68438;SDS011;55421;51.600;5.718;2023-09-19T05:20:02;7.20;;;1.80;;
68438;SDS011;55421;51.600;5.718;2023-09-19T05:22:32;12.80;;;2.10;;
68438;SDS011;55421;51.600;5.718;2023-09-19T05:24:59;10.50;;;2.30;;
68438;SDS011;55421;51.600;5.718;2023-09-19T05:27:25;7.60;;;1.80;;
68438;SDS011;55421;51.600;5.718;2023-09-19T05:29:52;8.20;;;1.60;;
68438;SDS011;55421;51.600;5.718;2023-09-19T05:32:19;7.90;;;1.70;;
68438;SDS011;55421;51.600;5.718;2023-09-19T05:34:46;8.10;;;1.80;;
68438;SDS011;55421;51.600;5.718;2023-09-19T05:37:19;7.90;;;1.70;;
68438;SDS011;55421;51.600;5.718;2023-09-19T05:39:46;11.70;;;2.00;;
68438;SDS011;55421;51.600;5.718;2023-09-19T05:42:12;7.50;;;1.60;;
68438;SDS011;55421;51.600;5.718;2023-09-19T05:44:39;8.10;;;1.70;;
68438;SDS011;55421;51.600;5.718;2023-09-19T05:47:06;4.90;;;1.90;;
68438;SDS011;55421;51.600;5.718;2023-09-19T05:49:35;7.50;;;1.70;;
68438;SDS011;55421;51.600;5.718;2023-09-19T05:52:05;10.20;;;2.10;;
68438;SDS011;55421;51.600;5.718;2023-09-19T05:54:32;7.90;;;2.20;;
68438;SDS011;55421;51.600;5.718;2023-09-19T05:57:00;7.60;;;2.00;;
68438;SDS011;55421;51.600;5.718;2023-09-19T05:59:28;12.50;;;2.10;;
68438;SDS011;55421;51.600;5.718;2023-09-19T06:01:54;8.40;;;2.30;;
68438;SDS011;55421;51.600;5.718;2023-09-19T06:04:21;11.70;;;2.00;;
68438;SDS011;55421;51.600;5.718;2023-09-19T06:06:48;5.50;;;1.70;;
68438;SDS011;55421;51.600;5.718;2023-09-19T06:09:14;8.50;;;1.90;;
68438;SDS011;55421;51.600;5.718;2023-09-19T06:11:42;10.50;;;1.80;;
68438;SDS011;55421;51.600;5.718;2023-09-19T06:14:08;10.90;;;1.90;;
68438;SDS011;55421;51.600;5.718;2023-09-19T06:16:36;5.50;;;1.60;;
68438;SDS011;55421;51.600;5.718;2023-09-19T06:19:04;10.00;;;2.20;;
68438;SDS011;55421;51.600;5.718;2023-09-19T06:21:35;7.10;;;2.10;;
68438;SDS011;55421;51.600;5.718;2023-09-19T06:24:02;9.80;;;2.10;;
68438;SDS011;55421;51.600;5.718;2023-09-19T06:26:29;9.70;;;2.30;;
68438;SDS011;55421;51.600;5.718;2023-09-19T06:28:57;8.40;;;1.80;;
68438;SDS011;55421;51.600;5.718;2023-09-19T06:31:25;11.00;;;1.90;;
68438;SDS011;55421;51.600;5.718;2023-09-19T06:33:55;13.90;;;2.30;;
68438;SDS011;55421;51.600;5.718;2023-09-19T06:36:21;6.70;;;1.40;;
68438;SDS011;55421;51.600;5.718;2023-09-19T06:38:48;11.70;;;2.70;;
68438;SDS011;55421;51.600;5.718;2023-09-19T06:41:14;8.60;;;1.90;;
68438;SDS011;55421;51.600;5.718;2023-09-19T06:43:43;11.30;;;3.70;;
68438;SDS011;55421;51.600;5.718;2023-09-19T06:46:10;10.40;;;2.10;;
68438;SDS011;55421;51.600;5.718;2023-09-19T06:48:36;7.80;;;2.00;;
68438;SDS011;55421;51.600;5.718;2023-09-19T06:51:04;8.10;;;2.10;;
68438;SDS011;55421;51.600;5.718;2023-09-19T06:53:34;9.30;;;1.80;;
68438;SDS011;55421;51.600;5.718;2023-09-19T06:56:02;10.10;;;2.10;;
68438;SDS011;55421;51.600;5.718;2023-09-19T06:58:29;11.20;;;2.40;;
68438;SDS011;55421;51.600;5.718;2023-09-19T07:00:56;8.00;;;2.00;;
68438;SDS011;55421;51.600;5.718;2023-09-19T07:03:23;8.10;;;1.70;;
68438;SDS011;55421;51.600;5.718;2023-09-19T07:05:52;10.40;;;2.00;;
68438;SDS011;55421;51.600;5.718;2023-09-19T07:08:19;9.60;;;1.90;;
68438;SDS011;55421;51.600;5.718;2023-09-19T07:10:46;11.90;;;2.10;;
68438;SDS011;55421;51.600;5.718;2023-09-19T07:13:15;9.50;;;2.40;;
68438;SDS011;55421;51.600;5.718;2023-09-19T07:15:44;8.90;;;1.70;;
68438;SDS011;55421;51.600;5.718;2023-09-19T07:20:43;11.70;;;2.80;;
68438;SDS011;55421;51.600;5.718;2023-09-19T07:23:18;9.50;;;1.90;;
68438;SDS011;55421;51.600;5.718;2023-09-19T07:25:47;10.10;;;2.70;;
68438;SDS011;55421;51.600;5.718;2023-09-19T07:28:15;9.90;;;2.60;;
68438;SDS011;55421;51.600;5.718;2023-09-19T07:30:42;13.10;;;2.20;;
68438;SDS011;55421;51.600;5.718;2023-09-19T07:33:08;12.50;;;1.90;;
68438;SDS011;55421;51.600;5.718;2023-09-19T07:35:38;10.60;;;2.20;;
68438;SDS011;55421;51.600;5.718;2023-09-19T07:38:08;8.70;;;1.90;;
68438;SDS011;55421;51.600;5.718;2023-09-19T07:40:37;10.10;;;2.00;;
68438;SDS011;55421;51.600;5.718;2023-09-19T07:43:04;16.50;;;2.10;;
68438;SDS011;55421;51.600;5.718;2023-09-19T07:45:31;7.90;;;1.90;;
68438;SDS011;55421;51.600;5.718;2023-09-19T07:47:58;10.60;;;2.30;;
68438;SDS011;55421;51.600;5.718;2023-09-19T07:50:27;7.50;;;2.20;;
68438;SDS011;55421;51.600;5.718;2023-09-19T07:52:55;12.50;;;2.30;;
68438;SDS011;55421;51.600;5.718;2023-09-19T07:55:22;6.40;;;2.10;;
68438;SDS011;55421;51.600;5.718;2023-09-19T07:57:52;10.80;;;1.70;;
68438;SDS011;55421;51.600;5.718;2023-09-19T08:00:19;6.60;;;1.30;;
68438;SDS011;55421;51.600;5.718;2023-09-19T08:02:45;7.40;;;1.60;;
68438;SDS011;55421;51.600;5.718;2023-09-19T08:05:12;11.30;;;2.20;;
68438;SDS011;55421;51.600;5.718;2023-09-19T08:07:44;7.50;;;1.90;;
68438;SDS011;55421;51.600;5.718;2023-09-19T08:10:15;10.70;;;2.30;;
68438;SDS011;55421;51.600;5.718;2023-09-19T08:12:43;10.40;;;2.00;;
68438;SDS011;55421;51.600;5.718;2023-09-19T08:17:41;9.70;;;2.20;;
68438;SDS011;55421;51.600;5.718;2023-09-19T08:20:09;5.80;;;1.60;;
68438;SDS011;55421;51.600;5.718;2023-09-19T08:22:46;11.10;;;2.30;;
68438;SDS011;55421;51.600;5.718;2023-09-19T08:25:15;6.60;;;1.50;;
68438;SDS011;55421;51.600;5.718;2023-09-19T08:27:47;9.50;;;2.10;;
68438;SDS011;55421;51.600;5.718;2023-09-19T08:30:16;11.60;;;2.60;;
68438;SDS011;55421;51.600;5.718;2023-09-19T08:32:44;8.70;;;2.60;;
68438;SDS011;55421;51.600;5.718;2023-09-19T08:35:12;10.50;;;2.00;;
68438;SDS011;55421;51.600;5.718;2023-09-19T08:37:39;11.80;;;2.10;;
68438;SDS011;55421;51.600;5.718;2023-09-19T08:40:06;9.50;;;2.20;;
68438;SDS011;55421;51.600;5.718;2023-09-19T08:45:17;10.60;;;2.10;;
68438;SDS011;55421;51.600;5.718;2023-09-19T08:48:02;8.10;;;2.30;;
68438;SDS011;55421;51.600;5.718;2023-09-19T08:54:25;11.10;;;2.00;;
68438;SDS011;55421;51.600;5.718;2023-09-19T08:57:00;7.60;;;2.30;;
68438;SDS011;55421;51.600;5.718;2023-09-19T08:59:29;10.60;;;2.20;;
68438;SDS011;55421;51.600;5.718;2023-09-19T09:01:57;7.40;;;1.90;;
68438;SDS011;55421;51.600;5.718;2023-09-19T09:04:25;8.50;;;2.10;;
68438;SDS011;55421;51.600;5.718;2023-09-19T09:06:53;5.20;;;1.60;;
68438;SDS011;55421;51.600;5.718;2023-09-19T09:09:21;10.50;;;2.20;;
68438;SDS011;55421;51.600;5.718;2023-09-19T09:11:51;11.10;;;2.20;;
68438;SDS011;55421;51.600;5.718;2023-09-19T09:14:20;9.50;;;2.60;;
68438;SDS011;55421;51.600;5.718;2023-09-19T09:16:48;7.60;;;2.00;;
68438;SDS011;55421;51.600;5.718;2023-09-19T09:19:15;6.00;;;1.70;;
68438;SDS011;55421;51.600;5.718;2023-09-19T09:21:47;12.70;;;2.70;;
68438;SDS011;55421;51.600;5.718;2023-09-19T09:24:26;10.90;;;2.20;;
68438;SDS011;55421;51.600;5.718;2023-09-19T09:26:57;5.40;;;1.80;;
68438;SDS011;55421;51.600;5.718;2023-09-19T09:32:17;9.30;;;2.40;;
68438;SDS011;55421;51.600;5.718;2023-09-19T09:34:56;11.30;;;2.50;;
68438;SDS011;55421;51.600;5.718;2023-09-19T09:37:25;9.60;;;2.60;;
68438;SDS011;55421;51.600;5.718;2023-09-19T09:39:58;8.20;;;2.30;;
68438;SDS011;55421;51.600;5.718;2023-09-19T09:42:45;13.40;;;2.00;;
68438;SDS011;55421;51.600;5.718;2023-09-19T09:45:20;10.50;;;2.30;;
68438;SDS011;55421;51.600;5.718;2023-09-19T09:48:00;9.40;;;2.20;;
68438;SDS011;55421;51.600;5.718;2023-09-19T09:50:32;12.30;;;2.40;;
68438;SDS011;55421;51.600;5.718;2023-09-19T09:53:30;7.90;;;2.20;;
68438;SDS011;55421;51.600;5.718;2023-09-19T09:56:08;7.20;;;1.80;;
68438;SDS011;55421;51.600;5.718;2023-09-19T09:58:51;5.80;;;2.20;;
68438;SDS011;55421;51.600;5.718;2023-09-19T10:01:25;8.80;;;1.90;;
68438;SDS011;55421;51.600;5.718;2023-09-19T10:03:58;9.90;;;1.90;;
68438;SDS011;55421;51.600;5.718;2023-09-19T10:06:26;8.30;;;2.00;;
68438;SDS011;55421;51.600;5.718;2023-09-19T10:09:14;9.40;;;2.30;;
68438;SDS011;55421;51.600;5.718;2023-09-19T10:11:45;7.20;;;1.90;;
68438;SDS011;55421;51.600;5.718;2023-09-19T10:14:17;4.80;;;1.60;;
68438;SDS011;55421;51.600;5.718;2023-09-19T10:16:51;4.60;;;1.50;;
68438;SDS011;55421;51.600;5.718;2023-09-19T10:19:30;10.50;;;2.30;;
68438;SDS011;55421;51.600;5.718;2023-09-19T10:22:04;7.60;;;1.80;;
68438;SDS011;55421;51.600;5.718;2023-09-19T10:24:35;7.00;;;1.70;;
68438;SDS011;55421;51.600;5.718;2023-09-19T10:27:06;10.20;;;1.80;;
68438;SDS011;55421;51.600;5.718;2023-09-19T10:29:36;13.20;;;2.30;;
68438;SDS011;55421;51.600;5.718;2023-09-19T10:32:06;6.20;;;1.70;;
68438;SDS011;55421;51.600;5.718;2023-09-19T10:34:35;5.60;;;1.50;;
68438;SDS011;55421;51.600;5.718;2023-09-19T10:37:02;3.90;;;1.90;;
68438;SDS011;55421;51.600;5.718;2023-09-19T10:39:32;9.00;;;2.20;;
68438;SDS011;55421;51.600;5.718;2023-09-19T10:42:02;8.40;;;1.90;;
68438;SDS011;55421;51.600;5.718;2023-09-19T10:44:32;9.20;;;2.10;;
68438;SDS011;55421;51.600;5.718;2023-09-19T10:46:59;4.50;;;1.60;;
68438;SDS011;55421;51.600;5.718;2023-09-19T10:49:26;10.60;;;2.20;;
68438;SDS011;55421;51.600;5.718;2023-09-19T10:51:54;9.10;;;2.30;;
68438;SDS011;55421;51.600;5.718;2023-09-19T10:54:27;9.90;;;2.30;;
68438;SDS011;55421;51.600;5.718;2023-09-19T10:56:59;5.90;;;1.40;;
68438;SDS011;55421;51.600;5.718;2023-09-19T10:59:26;7.60;;;2.00;;
68438;SDS011;55421;51.600;5.718;2023-09-19T11:02:18;6.20;;;1.80;;
68438;SDS011;55421;51.600;5.718;2023-09-19T11:04:45;5.20;;;1.80;;
68438;SDS011;55421;51.600;5.718;2023-09-19T11:07:15;9.00;;;1.80;;
68438;SDS011;55421;51.600;5.718;2023-09-19T11:09:55;2.80;;;1.60;;
68438;SDS011;55421;51.600;5.718;2023-09-19T11:15:07;7.90;;;1.70;;
68438;SDS011;55421;51.600;5.718;2023-09-19T11:30:35;7.40;;;1.60;;
68438;SDS011;55421;51.600;5.718;2023-09-19T11:33:23;5.50;;;1.30;;
68438;SDS011;55421;51.600;5.718;2023-09-19T11:46:54;5.90;;;1.50;;
68438;SDS011;55421;51.600;5.718;2023-09-19T11:49:27;7.40;;;1.30;;
68438;SDS011;55421;51.600;5.718;2023-09-19T11:52:03;5.30;;;1.40;;
68438;SDS011;55421;51.600;5.718;2023-09-19T11:54:35;4.30;;;1.50;;
68438;SDS011;55421;51.600;5.718;2023-09-19T11:57:07;1.80;;;1.10;;
68438;SDS011;55421;51.600;5.718;2023-09-19T11:59:38;5.80;;;1.30;;
68438;SDS011;55421;51.600;5.718;2023-09-19T12:02:06;8.60;;;1.50;;
68438;SDS011;55421;51.600;5.718;2023-09-19T12:07:08;6.30;;;1.30;;
68438;SDS011;55421;51.600;5.718;2023-09-19T12:09:43;3.70;;;1.20;;
68438;SDS011;55421;51.600;5.718;2023-09-19T12:12:22;6.00;;;1.50;;
68438;SDS011;55421;51.600;5.718;2023-09-19T12:14:50;27.30;;;2.00;;
68438;SDS011;55421;51.600;5.718;2023-09-19T12:17:17;6.10;;;1.20;;
68438;SDS011;55421;51.600;5.718;2023-09-19T12:19:56;5.20;;;1.10;;
68438;SDS011;55421;51.600;5.718;2023-09-19T12:22:23;2.20;;;1.10;;
68438;SDS011;55421;51.600;5.718;2023-09-19T12:24:51;4.40;;;1.20;;
68438;SDS011;55421;51.600;5.718;2023-09-19T12:27:20;7.80;;;1.10;;
68438;SDS011;55421;51.600;5.718;2023-09-19T12:29:49;3.00;;;1.00;;
68438;SDS011;55421;51.600;5.718;2023-09-19T12:32:37;4.90;;;1.20;;
68438;SDS011;55421;51.600;5.718;2023-09-19T12:35:07;2.30;;;0.80;;
68438;SDS011;55421;51.600;5.718;2023-09-19T12:37:37;5.40;;;1.50;;
68438;SDS011;55421;51.600;5.718;2023-09-19T12:40:14;3.80;;;1.00;;
68438;SDS011;55421;51.600;5.718;2023-09-19T12:42:45;2.70;;;0.80;;
68438;SDS011;55421;51.600;5.718;2023-09-19T12:45:13;4.10;;;0.80;;
68438;SDS011;55421;51.600;5.718;2023-09-19T12:48:20;1.40;;;0.60;;
68438;SDS011;55421;51.600;5.718;2023-09-19T12:51:05;3.90;;;1.10;;
68438;SDS011;55421;51.600;5.718;2023-09-19T12:53:39;7.80;;;1.00;;
68438;SDS011;55421;51.600;5.718;2023-09-19T12:56:12;2.50;;;0.80;;
68438;SDS011;55421;51.600;5.718;2023-09-19T12:58:58;3.00;;;0.80;;
68438;SDS011;55421;51.600;5.718;2023-09-19T13:01:27;2.00;;;0.70;;
68438;SDS011;55421;51.600;5.718;2023-09-19T13:04:13;2.30;;;0.90;;
68438;SDS011;55421;51.600;5.718;2023-09-19T13:06:52;3.40;;;1.10;;
68438;SDS011;55421;51.600;5.718;2023-09-19T13:09:21;5.20;;;1.00;;
68438;SDS011;55421;51.600;5.718;2023-09-19T13:11:50;1.80;;;0.80;;
68438;SDS011;55421;51.600;5.718;2023-09-19T13:14:23;3.70;;;0.70;;
68438;SDS011;55421;51.600;5.718;2023-09-19T13:17:01;3.10;;;0.80;;
68438;SDS011;55421;51.600;5.718;2023-09-19T13:19:39;2.00;;;0.80;;
68438;SDS011;55421;51.600;5.718;2023-09-19T13:22:36;4.00;;;1.10;;
68438;SDS011;55421;51.600;5.718;2023-09-19T13:25:21;2.90;;;0.90;;
68438;SDS011;55421;51.600;5.718;2023-09-19T13:27:50;1.00;;;0.70;;
68438;SDS011;55421;51.600;5.718;2023-09-19T13:30:24;4.20;;;0.80;;
68438;SDS011;55421;51.600;5.718;2023-09-19T13:33:05;4.80;;;1.00;;
68438;SDS011;55421;51.600;5.718;2023-09-19T13:35:33;3.40;;;1.00;;
68438;SDS011;55421;51.600;5.718;2023-09-19T13:38:00;2.20;;;0.80;;
68438;SDS011;55421;51.600;5.718;2023-09-19T13:40:27;5.60;;;1.00;;
68438;SDS011;55421;51.600;5.718;2023-09-19T13:42:56;3.10;;;0.90;;
68438;SDS011;55421;51.600;5.718;2023-09-19T13:45:23;2.20;;;0.80;;
68438;SDS011;55421;51.600;5.718;2023-09-19T13:47:53;1.20;;;0.80;;
68438;SDS011;55421;51.600;5.718;2023-09-19T13:50:20;3.40;;;1.00;;
68438;SDS011;55421;51.600;5.718;2023-09-19T13:52:51;2.50;;;1.10;;
68438;SDS011;55421;51.600;5.718;2023-09-19T13:55:17;2.50;;;0.60;;
68438;SDS011;55421;51.600;5.718;2023-09-19T13:57:49;3.10;;;1.00;;
68438;SDS011;55421;51.600;5.718;2023-09-19T14:00:18;3.10;;;0.90;;
68438;SDS011;55421;51.600;5.718;2023-09-19T14:02:45;3.10;;;0.60;;
68438;SDS011;55421;51.600;5.718;2023-09-19T14:05:12;5.00;;;1.00;;
68438;SDS011;55421;51.600;5.718;2023-09-19T14:07:42;2.90;;;0.80;;
68438;SDS011;55421;51.600;5.718;2023-09-19T14:10:10;3.50;;;0.90;;
68438;SDS011;55421;51.600;5.718;2023-09-19T14:12:37;3.50;;;0.80;;
68438;SDS011;55421;51.600;5.718;2023-09-19T14:15:08;4.30;;;1.00;;
68438;SDS011;55421;51.600;5.718;2023-09-19T14:17:35;3.60;;;1.20;;
68438;SDS011;55421;51.600;5.718;2023-09-19T14:20:02;2.80;;;0.80;;
68438;SDS011;55421;51.600;5.718;2023-09-19T14:22:28;2.60;;;0.80;;
68438;SDS011;55421;51.600;5.718;2023-09-19T14:24:57;6.70;;;1.10;;
68438;SDS011;55421;51.600;5.718;2023-09-19T14:27:25;1.80;;;0.70;;
68438;SDS011;55421;51.600;5.718;2023-09-19T14:29:52;1.40;;;0.90;;
68438;SDS011;55421;51.600;5.718;2023-09-19T14:32:18;2.60;;;0.90;;
68438;SDS011;55421;51.600;5.718;2023-09-19T14:34:45;3.60;;;0.80;;
68438;SDS011;55421;51.600;5.718;2023-09-19T14:37:12;2.30;;;0.90;;
68438;SDS011;55421;51.600;5.718;2023-09-19T14:39:40;3.40;;;0.90;;
68438;SDS011;55421;51.600;5.718;2023-09-19T14:42:08;1.90;;;0.80;;
68438;SDS011;55421;51.600;5.718;2023-09-19T14:44:35;2.30;;;0.70;;
68438;SDS011;55421;51.600;5.718;2023-09-19T14:47:03;2.90;;;1.00;;
68438;SDS011;55421;51.600;5.718;2023-09-19T14:49:35;3.80;;;0.90;;
68438;SDS011;55421;51.600;5.718;2023-09-19T14:52:09;4.10;;;1.10;;
68438;SDS011;55421;51.600;5.718;2023-09-19T14:54:36;3.20;;;1.00;;
68438;SDS011;55421;51.600;5.718;2023-09-19T14:57:07;3.40;;;1.00;;
68438;SDS011;55421;51.600;5.718;2023-09-19T14:59:35;5.10;;;1.10;;
68438;SDS011;55421;51.600;5.718;2023-09-19T15:02:04;2.70;;;1.10;;
68438;SDS011;55421;51.600;5.718;2023-09-19T15:04:31;4.50;;;1.00;;
68438;SDS011;55421;51.600;5.718;2023-09-19T15:06:57;6.10;;;1.20;;
68438;SDS011;55421;51.600;5.718;2023-09-19T15:09:24;3.90;;;1.20;;
68438;SDS011;55421;51.600;5.718;2023-09-19T15:11:52;2.30;;;1.00;;
68438;SDS011;55421;51.600;5.718;2023-09-19T15:14:20;6.70;;;1.20;;
68438;SDS011;55421;51.600;5.718;2023-09-19T15:16:48;5.10;;;1.00;;
68438;SDS011;55421;51.600;5.718;2023-09-19T15:19:14;2.40;;;1.00;;
68438;SDS011;55421;51.600;5.718;2023-09-19T15:21:41;2.40;;;1.00;;
68438;SDS011;55421;51.600;5.718;2023-09-19T15:24:08;4.60;;;1.10;;
68438;SDS011;55421;51.600;5.718;2023-09-19T15:26:36;5.80;;;1.10;;
68438;SDS011;55421;51.600;5.718;2023-09-19T15:29:08;4.20;;;1.00;;
68438;SDS011;55421;51.600;5.718;2023-09-19T15:31:36;3.00;;;0.90;;
68438;SDS011;55421;51.600;5.718;2023-09-19T15:34:03;2.20;;;1.10;;
68438;SDS011;55421;51.600;5.718;2023-09-19T15:36:31;4.30;;;1.00;;
68438;SDS011;55421;51.600;5.718;2023-09-19T15:39:07;6.60;;;1.10;;
68438;SDS011;55421;51.600;5.718;2023-09-19T15:41:41;4.00;;;1.00;;
68438;SDS011;55421;51.600;5.718;2023-09-19T15:44:15;3.90;;;1.00;;
68438;SDS011;55421;51.600;5.718;2023-09-19T15:46:43;2.00;;;1.00;;
68438;SDS011;55421;51.600;5.718;2023-09-19T15:49:10;3.60;;;1.00;;
68438;SDS011;55421;51.600;5.718;2023-09-19T15:51:38;3.00;;;1.10;;
68438;SDS011;55421;51.600;5.718;2023-09-19T15:54:08;3.30;;;1.20;;
68438;SDS011;55421;51.600;5.718;2023-09-19T15:56:44;2.90;;;0.90;;